sensor_id;sensor_type;location;lat;lon;timestamp;P1;durP1;ratioP1;P2;durP2;ratioP2
29432;SDS011;16405;53.964;13.448;2023-07-29T00:00:41;9.82;;;6.90;;
29432;SDS011;16405;53.964;13.448;2023-07-29T00:03:08;12.25;;;6.35;;
29432;SDS011;16405;53.964;13.448;2023-07-29T00:05:37;7.40;;;5.13;;
29432;SDS011;16405;53.964;13.448;2023-07-29T00:08:03;9.63;;;5.90;;
29432;SDS011;16405;53.964;13.448;2023-07-29T00:10:31;9.30;;;4.90;;
29432;SDS011;16405;53.964;13.448;2023-07-29T00:12:58;7.30;;;4.85;;
29432;SDS011;16405;53.964;13.448;2023-07-29T00:15:26;6.05;;;3.80;;
29432;SDS011;16405;53.964;13.448;2023-07-29T00:17:54;7.18;;;4.63;;
29432;SDS011;16405;53.964;13.448;2023-07-29T00:20:20;6.68;;;5.13;;
29432;SDS011;16405;53.964;13.448;2023-07-29T00:22:46;6.85;;;5.07;;
29432;SDS011;16405;53.964;13.448;2023-07-29T00:25:14;8.63;;;5.07;;
29432;SDS011;16405;53.964;13.448;2023-07-29T00:27:50;11.23;;;6.00;;
29432;SDS011;16405;53.964;13.448;2023-07-29T00:30:15;7.50;;;5.97;;
29432;SDS011;16405;53.964;13.448;2023-07-29T00:32:41;8.20;;;6.72;;
29432;SDS011;16405;53.964;13.448;2023-07-29T00:35:07;9.95;;;7.18;;
29432;SDS011;16405;53.964;13.448;2023-07-29T00:37:42;9.32;;;6.40;;
29432;SDS011;16405;53.964;13.448;2023-07-29T00:40:09;10.70;;;6.88;;
29432;SDS011;16405;53.964;13.448;2023-07-29T00:42:44;11.82;;;5.85;;
29432;SDS011;16405;53.964;13.448;2023-07-29T00:45:10;10.15;;;6.40;;
29432;SDS011;16405;53.964;13.448;2023-07-29T00:47:36;11.48;;;6.10;;
29432;SDS011;16405;53.964;13.448;2023-07-29T00:50:03;11.70;;;7.13;;
29432;SDS011;16405;53.964;13.448;2023-07-29T00:52:34;14.88;;;7.78;;
29432;SDS011;16405;53.964;13.448;2023-07-29T00:55:00;12.13;;;7.15;;
29432;SDS011;16405;53.964;13.448;2023-07-29T00:57:29;12.63;;;7.25;;
29432;SDS011;16405;53.964;13.448;2023-07-29T00:59:55;12.82;;;7.47;;
29432;SDS011;16405;53.964;13.448;2023-07-29T01:02:30;10.70;;;7.03;;
29432;SDS011;16405;53.964;13.448;2023-07-29T01:04:57;14.23;;;6.50;;
29432;SDS011;16405;53.964;13.448;2023-07-29T01:07:37;7.90;;;4.40;;
29432;SDS011;16405;53.964;13.448;2023-07-29T01:10:17;8.20;;;4.80;;
29432;SDS011;16405;53.964;13.448;2023-07-29T01:13:17;15.38;;;7.60;;
29432;SDS011;16405;53.964;13.448;2023-07-29T01:16:02;11.75;;;7.68;;
29432;SDS011;16405;53.964;13.448;2023-07-29T01:18:53;10.30;;;7.22;;
29432;SDS011;16405;53.964;13.448;2023-07-29T01:21:28;14.75;;;7.50;;
29432;SDS011;16405;53.964;13.448;2023-07-29T01:23:57;10.25;;;7.10;;
29432;SDS011;16405;53.964;13.448;2023-07-29T01:26:26;10.55;;;7.18;;
29432;SDS011;16405;53.964;13.448;2023-07-29T01:28:54;12.13;;;7.68;;
29432;SDS011;16405;53.964;13.448;2023-07-29T01:31:32;12.30;;;7.88;;
29432;SDS011;16405;53.964;13.448;2023-07-29T01:34:15;12.88;;;7.50;;
29432;SDS011;16405;53.964;13.448;2023-07-29T01:36:51;11.18;;;7.47;;
29432;SDS011;16405;53.964;13.448;2023-07-29T01:39:19;13.95;;;7.07;;
29432;SDS011;16405;53.964;13.448;2023-07-29T01:41:47;11.13;;;7.47;;
29432;SDS011;16405;53.964;13.448;2023-07-29T01:44:17;14.68;;;7.68;;
29432;SDS011;16405;53.964;13.448;2023-07-29T01:46:44;10.68;;;7.60;;
29432;SDS011;16405;53.964;13.448;2023-07-29T01:49:10;12.18;;;8.05;;
29432;SDS011;16405;53.964;13.448;2023-07-29T01:51:36;13.13;;;8.77;;
29432;SDS011;16405;53.964;13.448;2023-07-29T01:54:02;15.82;;;9.35;;
29432;SDS011;16405;53.964;13.448;2023-07-29T01:59:02;17.17;;;9.50;;
29432;SDS011;16405;53.964;13.448;2023-07-29T02:01:28;15.15;;;9.02;;
29432;SDS011;16405;53.964;13.448;2023-07-29T02:03:56;15.98;;;9.40;;
29432;SDS011;16405;53.964;13.448;2023-07-29T02:06:26;15.30;;;10.52;;
29432;SDS011;16405;53.964;13.448;2023-07-29T02:08:52;15.85;;;9.80;;
29432;SDS011;16405;53.964;13.448;2023-07-29T02:11:19;16.27;;;9.25;;
29432;SDS011;16405;53.964;13.448;2023-07-29T02:13:52;10.75;;;7.32;;
29432;SDS011;16405;53.964;13.448;2023-07-29T02:16:19;18.95;;;9.85;;
29432;SDS011;16405;53.964;13.448;2023-07-29T02:18:45;16.40;;;10.75;;
29432;SDS011;16405;53.964;13.448;2023-07-29T02:21:11;19.02;;;10.82;;
29432;SDS011;16405;53.964;13.448;2023-07-29T02:23:37;21.75;;;12.02;;
29432;SDS011;16405;53.964;13.448;2023-07-29T02:26:03;12.93;;;8.60;;
29432;SDS011;16405;53.964;13.448;2023-07-29T02:28:31;11.35;;;8.18;;
29432;SDS011;16405;53.964;13.448;2023-07-29T02:33:42;16.48;;;10.20;;
29432;SDS011;16405;53.964;13.448;2023-07-29T02:36:09;17.58;;;11.25;;
29432;SDS011;16405;53.964;13.448;2023-07-29T02:38:42;17.75;;;11.43;;
29432;SDS011;16405;53.964;13.448;2023-07-29T02:41:10;15.23;;;11.52;;
29432;SDS011;16405;53.964;13.448;2023-07-29T02:43:37;20.88;;;11.25;;
29432;SDS011;16405;53.964;13.448;2023-07-29T02:46:04;17.63;;;10.73;;
29432;SDS011;16405;53.964;13.448;2023-07-29T02:48:34;19.10;;;10.38;;
29432;SDS011;16405;53.964;13.448;2023-07-29T02:51:00;15.73;;;10.43;;
29432;SDS011;16405;53.964;13.448;2023-07-29T02:53:43;15.60;;;10.68;;
29432;SDS011;16405;53.964;13.448;2023-07-29T02:56:09;17.80;;;11.23;;
29432;SDS011;16405;53.964;13.448;2023-07-29T02:58:37;19.55;;;11.77;;
29432;SDS011;16405;53.964;13.448;2023-07-29T03:01:05;20.40;;;11.50;;
29432;SDS011;16405;53.964;13.448;2023-07-29T03:03:32;19.05;;;10.90;;
29432;SDS011;16405;53.964;13.448;2023-07-29T03:06:19;15.27;;;10.57;;
29432;SDS011;16405;53.964;13.448;2023-07-29T03:08:44;19.20;;;11.52;;
29432;SDS011;16405;53.964;13.448;2023-07-29T03:11:17;16.77;;;11.85;;
29432;SDS011;16405;53.964;13.448;2023-07-29T03:13:43;18.25;;;12.15;;
29432;SDS011;16405;53.964;13.448;2023-07-29T03:16:10;17.63;;;11.57;;
29432;SDS011;16405;53.964;13.448;2023-07-29T03:18:41;16.52;;;11.15;;
29432;SDS011;16405;53.964;13.448;2023-07-29T03:21:09;14.10;;;10.80;;
29432;SDS011;16405;53.964;13.448;2023-07-29T03:23:35;19.45;;;11.57;;
29432;SDS011;16405;53.964;13.448;2023-07-29T03:26:02;15.85;;;10.82;;
29432;SDS011;16405;53.964;13.448;2023-07-29T03:31:06;18.63;;;10.05;;
29432;SDS011;16405;53.964;13.448;2023-07-29T03:33:37;16.15;;;10.73;;
29432;SDS011;16405;53.964;13.448;2023-07-29T03:36:06;13.77;;;10.50;;
29432;SDS011;16405;53.964;13.448;2023-07-29T03:38:32;15.90;;;10.55;;
29432;SDS011;16405;53.964;13.448;2023-07-29T03:41:02;16.42;;;9.85;;
29432;SDS011;16405;53.964;13.448;2023-07-29T03:43:31;16.83;;;9.73;;
29432;SDS011;16405;53.964;13.448;2023-07-29T03:45:56;19.13;;;11.18;;
29432;SDS011;16405;53.964;13.448;2023-07-29T03:48:22;16.10;;;9.98;;
29432;SDS011;16405;53.964;13.448;2023-07-29T03:50:51;14.50;;;9.57;;
29432;SDS011;16405;53.964;13.448;2023-07-29T03:53:16;15.85;;;9.65;;
29432;SDS011;16405;53.964;13.448;2023-07-29T03:55:48;20.38;;;9.55;;
29432;SDS011;16405;53.964;13.448;2023-07-29T03:58:15;12.88;;;9.35;;
29432;SDS011;16405;53.964;13.448;2023-07-29T04:00:43;15.57;;;10.07;;
29432;SDS011;16405;53.964;13.448;2023-07-29T04:03:14;18.48;;;9.80;;
29432;SDS011;16405;53.964;13.448;2023-07-29T04:05:40;16.10;;;9.25;;
29432;SDS011;16405;53.964;13.448;2023-07-29T04:08:06;13.52;;;9.55;;
29432;SDS011;16405;53.964;13.448;2023-07-29T04:10:32;15.70;;;9.75;;
29432;SDS011;16405;53.964;13.448;2023-07-29T04:13:00;18.13;;;9.27;;
29432;SDS011;16405;53.964;13.448;2023-07-29T04:15:30;14.13;;;8.73;;
29432;SDS011;16405;53.964;13.448;2023-07-29T04:17:55;16.90;;;8.75;;
29432;SDS011;16405;53.964;13.448;2023-07-29T04:20:21;16.98;;;8.35;;
29432;SDS011;16405;53.964;13.448;2023-07-29T04:22:47;14.88;;;8.32;;
29432;SDS011;16405;53.964;13.448;2023-07-29T04:25:13;17.23;;;8.32;;
29432;SDS011;16405;53.964;13.448;2023-07-29T04:27:41;18.80;;;8.30;;
29432;SDS011;16405;53.964;13.448;2023-07-29T04:30:10;14.10;;;8.13;;
29432;SDS011;16405;53.964;13.448;2023-07-29T04:32:36;18.92;;;7.75;;
29432;SDS011;16405;53.964;13.448;2023-07-29T04:35:01;13.43;;;7.88;;
29432;SDS011;16405;53.964;13.448;2023-07-29T04:37:27;17.58;;;7.97;;
29432;SDS011;16405;53.964;13.448;2023-07-29T04:39:53;11.10;;;7.85;;
29432;SDS011;16405;53.964;13.448;2023-07-29T04:42:19;15.77;;;8.05;;
29432;SDS011;16405;53.964;13.448;2023-07-29T04:44:45;12.07;;;6.97;;
29432;SDS011;16405;53.964;13.448;2023-07-29T04:47:10;13.07;;;7.38;;
29432;SDS011;16405;53.964;13.448;2023-07-29T04:49:39;12.48;;;7.32;;
29432;SDS011;16405;53.964;13.448;2023-07-29T04:52:05;12.07;;;7.38;;
29432;SDS011;16405;53.964;13.448;2023-07-29T04:54:31;15.25;;;6.55;;
29432;SDS011;16405;53.964;13.448;2023-07-29T04:56:57;16.08;;;7.07;;
29432;SDS011;16405;53.964;13.448;2023-07-29T05:01:51;11.35;;;6.53;;
29432;SDS011;16405;53.964;13.448;2023-07-29T05:04:19;11.85;;;6.57;;
29432;SDS011;16405;53.964;13.448;2023-07-29T05:06:45;10.15;;;6.53;;
29432;SDS011;16405;53.964;13.448;2023-07-29T05:09:17;12.60;;;6.78;;
29432;SDS011;16405;53.964;13.448;2023-07-29T05:11:46;7.90;;;5.87;;
29432;SDS011;16405;53.964;13.448;2023-07-29T05:14:14;11.75;;;6.20;;
29432;SDS011;16405;53.964;13.448;2023-07-29T05:16:41;12.32;;;6.68;;
29432;SDS011;16405;53.964;13.448;2023-07-29T05:19:16;13.20;;;6.25;;
29432;SDS011;16405;53.964;13.448;2023-07-29T05:21:42;10.60;;;5.78;;
29432;SDS011;16405;53.964;13.448;2023-07-29T05:24:08;14.10;;;6.25;;
29432;SDS011;16405;53.964;13.448;2023-07-29T05:26:41;10.65;;;6.05;;
29432;SDS011;16405;53.964;13.448;2023-07-29T05:29:14;9.70;;;6.20;;
29432;SDS011;16405;53.964;13.448;2023-07-29T05:31:52;6.93;;;5.50;;
29432;SDS011;16405;53.964;13.448;2023-07-29T05:34:18;12.35;;;6.13;;
29432;SDS011;16405;53.964;13.448;2023-07-29T05:36:52;12.27;;;5.70;;
29432;SDS011;16405;53.964;13.448;2023-07-29T05:39:20;12.75;;;6.20;;
29432;SDS011;16405;53.964;13.448;2023-07-29T05:41:49;9.52;;;6.22;;
29432;SDS011;16405;53.964;13.448;2023-07-29T05:44:17;12.43;;;6.15;;
29432;SDS011;16405;53.964;13.448;2023-07-29T05:46:43;12.73;;;6.45;;
29432;SDS011;16405;53.964;13.448;2023-07-29T05:51:34;11.50;;;6.88;;
29432;SDS011;16405;53.964;13.448;2023-07-29T05:56:26;8.90;;;5.20;;
29432;SDS011;16405;53.964;13.448;2023-07-29T06:01:25;10.57;;;5.57;;
29432;SDS011;16405;53.964;13.448;2023-07-29T06:03:51;7.75;;;5.35;;
29432;SDS011;16405;53.964;13.448;2023-07-29T06:06:17;11.60;;;5.32;;
29432;SDS011;16405;53.964;13.448;2023-07-29T06:11:11;10.50;;;5.30;;
29432;SDS011;16405;53.964;13.448;2023-07-29T06:13:39;11.80;;;5.45;;
29432;SDS011;16405;53.964;13.448;2023-07-29T06:16:05;7.72;;;5.15;;
29432;SDS011;16405;53.964;13.448;2023-07-29T06:18:31;9.43;;;4.40;;
29432;SDS011;16405;53.964;13.448;2023-07-29T06:20:57;9.88;;;4.13;;
29432;SDS011;16405;53.964;13.448;2023-07-29T06:23:23;6.32;;;4.00;;
29432;SDS011;16405;53.964;13.448;2023-07-29T06:25:48;6.97;;;4.10;;
29432;SDS011;16405;53.964;13.448;2023-07-29T06:28:17;6.40;;;4.10;;
29432;SDS011;16405;53.964;13.448;2023-07-29T06:30:43;5.60;;;3.88;;
29432;SDS011;16405;53.964;13.448;2023-07-29T06:33:09;7.25;;;3.70;;
29432;SDS011;16405;53.964;13.448;2023-07-29T06:35:35;4.07;;;3.67;;
29432;SDS011;16405;53.964;13.448;2023-07-29T06:38:01;6.95;;;3.50;;
29432;SDS011;16405;53.964;13.448;2023-07-29T06:40:27;6.82;;;3.58;;
29432;SDS011;16405;53.964;13.448;2023-07-29T06:43:03;5.80;;;3.10;;
29432;SDS011;16405;53.964;13.448;2023-07-29T06:45:29;10.20;;;3.20;;
29432;SDS011;16405;53.964;13.448;2023-07-29T06:47:57;5.88;;;2.88;;
29432;SDS011;16405;53.964;13.448;2023-07-29T06:50:25;5.90;;;2.58;;
29432;SDS011;16405;53.964;13.448;2023-07-29T06:52:51;3.63;;;2.70;;
29432;SDS011;16405;53.964;13.448;2023-07-29T06:55:17;5.38;;;2.50;;
29432;SDS011;16405;53.964;13.448;2023-07-29T06:57:43;2.65;;;2.20;;
29432;SDS011;16405;53.964;13.448;2023-07-29T07:00:09;4.00;;;2.20;;
29432;SDS011;16405;53.964;13.448;2023-07-29T07:02:35;5.03;;;2.30;;
29432;SDS011;16405;53.964;13.448;2023-07-29T07:05:08;4.15;;;2.22;;
29432;SDS011;16405;53.964;13.448;2023-07-29T07:07:34;4.65;;;2.13;;
29432;SDS011;16405;53.964;13.448;2023-07-29T07:10:00;4.97;;;2.10;;
29432;SDS011;16405;53.964;13.448;2023-07-29T07:12:26;5.05;;;2.30;;
29432;SDS011;16405;53.964;13.448;2023-07-29T07:14:51;3.50;;;2.00;;
29432;SDS011;16405;53.964;13.448;2023-07-29T07:17:17;2.75;;;1.90;;
29432;SDS011;16405;53.964;13.448;2023-07-29T07:19:46;3.67;;;1.80;;
29432;SDS011;16405;53.964;13.448;2023-07-29T07:22:12;2.35;;;1.52;;
29432;SDS011;16405;53.964;13.448;2023-07-29T07:24:37;2.58;;;1.42;;
29432;SDS011;16405;53.964;13.448;2023-07-29T07:27:03;6.05;;;1.20;;
29432;SDS011;16405;53.964;13.448;2023-07-29T07:29:29;6.90;;;1.30;;
29432;SDS011;16405;53.964;13.448;2023-07-29T07:31:55;6.82;;;1.30;;
29432;SDS011;16405;53.964;13.448;2023-07-29T07:34:23;5.82;;;1.23;;
29432;SDS011;16405;53.964;13.448;2023-07-29T07:36:49;6.97;;;1.10;;
29432;SDS011;16405;53.964;13.448;2023-07-29T07:39:15;3.38;;;1.25;;
29432;SDS011;16405;53.964;13.448;2023-07-29T07:41:41;2.78;;;1.45;;
29432;SDS011;16405;53.964;13.448;2023-07-29T07:44:07;4.00;;;1.35;;
29432;SDS011;16405;53.964;13.448;2023-07-29T07:46:33;1.40;;;1.30;;
29432;SDS011;16405;53.964;13.448;2023-07-29T07:48:59;1.88;;;1.30;;
29432;SDS011;16405;53.964;13.448;2023-07-29T07:51:25;4.22;;;1.15;;
29432;SDS011;16405;53.964;13.448;2023-07-29T07:53:51;3.58;;;1.10;;
29432;SDS011;16405;53.964;13.448;2023-07-29T07:56:16;1.55;;;1.38;;
29432;SDS011;16405;53.964;13.448;2023-07-29T07:58:42;3.80;;;1.30;;
29432;SDS011;16405;53.964;13.448;2023-07-29T08:01:08;7.30;;;1.10;;
29432;SDS011;16405;53.964;13.448;2023-07-29T08:03:35;4.30;;;1.20;;
29432;SDS011;16405;53.964;13.448;2023-07-29T08:06:01;5.82;;;1.40;;
29432;SDS011;16405;53.964;13.448;2023-07-29T08:08:28;3.92;;;1.70;;
29432;SDS011;16405;53.964;13.448;2023-07-29T08:10:54;3.63;;;1.30;;
29432;SDS011;16405;53.964;13.448;2023-07-29T08:13:22;6.68;;;1.30;;
29432;SDS011;16405;53.964;13.448;2023-07-29T08:15:51;2.03;;;1.35;;
29432;SDS011;16405;53.964;13.448;2023-07-29T08:18:18;4.93;;;1.40;;
29432;SDS011;16405;53.964;13.448;2023-07-29T08:20:52;4.85;;;1.40;;
29432;SDS011;16405;53.964;13.448;2023-07-29T08:23:29;4.45;;;1.42;;
29432;SDS011;16405;53.964;13.448;2023-07-29T08:26:00;4.10;;;1.35;;
29432;SDS011;16405;53.964;13.448;2023-07-29T08:28:32;1.70;;;1.60;;
29432;SDS011;16405;53.964;13.448;2023-07-29T08:31:04;2.35;;;1.40;;
29432;SDS011;16405;53.964;13.448;2023-07-29T08:33:31;8.68;;;1.70;;
29432;SDS011;16405;53.964;13.448;2023-07-29T08:36:02;2.53;;;1.70;;
29432;SDS011;16405;53.964;13.448;2023-07-29T08:38:29;2.15;;;1.30;;
29432;SDS011;16405;53.964;13.448;2023-07-29T08:41:16;2.17;;;1.25;;
29432;SDS011;16405;53.964;13.448;2023-07-29T08:43:52;3.08;;;1.30;;
29432;SDS011;16405;53.964;13.448;2023-07-29T08:46:54;1.45;;;1.13;;
29432;SDS011;16405;53.964;13.448;2023-07-29T08:49:22;5.90;;;1.58;;
29432;SDS011;16405;53.964;13.448;2023-07-29T08:51:53;3.70;;;1.60;;
29432;SDS011;16405;53.964;13.448;2023-07-29T08:54:19;1.75;;;1.33;;
29432;SDS011;16405;53.964;13.448;2023-07-29T08:56:53;1.30;;;1.20;;
29432;SDS011;16405;53.964;13.448;2023-07-29T08:59:20;2.10;;;1.25;;
29432;SDS011;16405;53.964;13.448;2023-07-29T09:01:50;6.10;;;1.45;;
29432;SDS011;16405;53.964;13.448;2023-07-29T09:04:21;2.03;;;1.40;;
29432;SDS011;16405;53.964;13.448;2023-07-29T09:06:53;5.03;;;1.50;;
29432;SDS011;16405;53.964;13.448;2023-07-29T09:09:27;1.67;;;1.35;;
29432;SDS011;16405;53.964;13.448;2023-07-29T09:11:53;1.60;;;1.48;;
29432;SDS011;16405;53.964;13.448;2023-07-29T09:14:23;5.78;;;1.50;;
29432;SDS011;16405;53.964;13.448;2023-07-29T09:16:51;1.48;;;1.30;;
29432;SDS011;16405;53.964;13.448;2023-07-29T09:19:18;5.35;;;1.58;;
29432;SDS011;16405;53.964;13.448;2023-07-29T09:21:47;2.92;;;1.63;;
29432;SDS011;16405;53.964;13.448;2023-07-29T09:24:20;1.90;;;1.50;;
29432;SDS011;16405;53.964;13.448;2023-07-29T09:26:51;6.38;;;1.80;;
29432;SDS011;16405;53.964;13.448;2023-07-29T09:29:27;3.05;;;1.90;;
29432;SDS011;16405;53.964;13.448;2023-07-29T09:31:54;2.80;;;1.95;;
29432;SDS011;16405;53.964;13.448;2023-07-29T09:37:38;5.20;;;1.83;;
29432;SDS011;16405;53.964;13.448;2023-07-29T09:40:05;2.38;;;1.60;;
29432;SDS011;16405;53.964;13.448;2023-07-29T09:42:49;2.13;;;1.77;;
29432;SDS011;16405;53.964;13.448;2023-07-29T09:47:55;3.13;;;1.90;;
29432;SDS011;16405;53.964;13.448;2023-07-29T09:50:28;2.25;;;1.98;;
29432;SDS011;16405;53.964;13.448;2023-07-29T09:52:55;9.82;;;2.00;;
29432;SDS011;16405;53.964;13.448;2023-07-29T09:55:28;2.75;;;2.00;;
29432;SDS011;16405;53.964;13.448;2023-07-29T09:57:59;3.75;;;2.30;;
29432;SDS011;16405;53.964;13.448;2023-07-29T10:00:33;5.78;;;2.03;;
29432;SDS011;16405;53.964;13.448;2023-07-29T10:03:03;2.10;;;1.85;;
29432;SDS011;16405;53.964;13.448;2023-07-29T10:05:31;5.93;;;2.45;;
29432;SDS011;16405;53.964;13.448;2023-07-29T10:08:00;3.65;;;1.98;;
29432;SDS011;16405;53.964;13.448;2023-07-29T10:10:27;4.63;;;2.35;;
29432;SDS011;16405;53.964;13.448;2023-07-29T10:12:54;3.58;;;2.05;;
29432;SDS011;16405;53.964;13.448;2023-07-29T10:15:24;5.25;;;2.65;;
29432;SDS011;16405;53.964;13.448;2023-07-29T10:17:56;5.80;;;2.90;;
29432;SDS011;16405;53.964;13.448;2023-07-29T10:20:22;3.63;;;2.53;;
29432;SDS011;16405;53.964;13.448;2023-07-29T10:22:48;5.10;;;2.60;;
29432;SDS011;16405;53.964;13.448;2023-07-29T10:25:18;5.70;;;2.72;;
29432;SDS011;16405;53.964;13.448;2023-07-29T10:27:52;8.00;;;2.40;;
29432;SDS011;16405;53.964;13.448;2023-07-29T10:30:29;17.30;;;1.85;;
29432;SDS011;16405;53.964;13.448;2023-07-29T10:32:58;10.23;;;2.67;;
29432;SDS011;16405;53.964;13.448;2023-07-29T10:35:28;12.30;;;3.55;;
29432;SDS011;16405;53.964;13.448;2023-07-29T10:38:00;21.73;;;6.43;;
29432;SDS011;16405;53.964;13.448;2023-07-29T10:40:43;33.03;;;8.27;;
29432;SDS011;16405;53.964;13.448;2023-07-29T10:43:33;15.63;;;4.75;;
29432;SDS011;16405;53.964;13.448;2023-07-29T10:46:22;15.60;;;3.75;;
29432;SDS011;16405;53.964;13.448;2023-07-29T10:48:55;5.35;;;2.78;;
29432;SDS011;16405;53.964;13.448;2023-07-29T10:51:25;5.57;;;2.95;;
29432;SDS011;16405;53.964;13.448;2023-07-29T10:54:01;6.80;;;3.67;;
29432;SDS011;16405;53.964;13.448;2023-07-29T10:56:43;4.68;;;3.60;;
29432;SDS011;16405;53.964;13.448;2023-07-29T11:01:54;4.85;;;3.92;;
29432;SDS011;16405;53.964;13.448;2023-07-29T11:17:36;7.38;;;5.60;;
29432;SDS011;16405;53.964;13.448;2023-07-29T11:20:08;11.95;;;6.45;;
29432;SDS011;16405;53.964;13.448;2023-07-29T11:22:35;6.68;;;5.65;;
29432;SDS011;16405;53.964;13.448;2023-07-29T11:25:02;9.43;;;6.38;;
29432;SDS011;16405;53.964;13.448;2023-07-29T11:27:29;9.30;;;5.25;;
29432;SDS011;16405;53.964;13.448;2023-07-29T11:30:01;9.05;;;5.65;;
29432;SDS011;16405;53.964;13.448;2023-07-29T11:32:41;9.20;;;5.45;;
29432;SDS011;16405;53.964;13.448;2023-07-29T11:35:10;6.45;;;5.43;;
29432;SDS011;16405;53.964;13.448;2023-07-29T11:37:46;14.13;;;5.72;;
29432;SDS011;16405;53.964;13.448;2023-07-29T11:40:23;8.80;;;5.80;;
29432;SDS011;16405;53.964;13.448;2023-07-29T11:42:50;7.20;;;5.60;;
29432;SDS011;16405;53.964;13.448;2023-07-29T11:45:17;6.50;;;5.72;;
29432;SDS011;16405;53.964;13.448;2023-07-29T11:47:47;8.25;;;5.88;;
29432;SDS011;16405;53.964;13.448;2023-07-29T11:50:15;6.60;;;5.70;;
29432;SDS011;16405;53.964;13.448;2023-07-29T11:52:42;6.90;;;6.05;;
29432;SDS011;16405;53.964;13.448;2023-07-29T11:55:11;8.43;;;6.32;;
29432;SDS011;16405;53.964;13.448;2023-07-29T11:57:44;12.02;;;7.13;;
29432;SDS011;16405;53.964;13.448;2023-07-29T12:00:25;10.20;;;6.50;;
29432;SDS011;16405;53.964;13.448;2023-07-29T12:02:51;11.27;;;6.88;;
29432;SDS011;16405;53.964;13.448;2023-07-29T12:05:17;9.27;;;6.85;;
29432;SDS011;16405;53.964;13.448;2023-07-29T12:07:49;9.40;;;6.38;;
29432;SDS011;16405;53.964;13.448;2023-07-29T12:10:18;5.82;;;5.22;;
29432;SDS011;16405;53.964;13.448;2023-07-29T12:12:46;5.57;;;4.88;;
29432;SDS011;16405;53.964;13.448;2023-07-29T12:15:22;10.23;;;4.72;;
29432;SDS011;16405;53.964;13.448;2023-07-29T12:17:59;6.93;;;4.70;;
29432;SDS011;16405;53.964;13.448;2023-07-29T12:20:29;6.10;;;3.95;;
29432;SDS011;16405;53.964;13.448;2023-07-29T12:22:56;4.38;;;3.55;;
29432;SDS011;16405;53.964;13.448;2023-07-29T12:25:31;3.67;;;3.30;;
29432;SDS011;16405;53.964;13.448;2023-07-29T12:28:05;4.18;;;3.45;;
29432;SDS011;16405;53.964;13.448;2023-07-29T12:30:31;5.10;;;3.75;;
29432;SDS011;16405;53.964;13.448;2023-07-29T12:32:57;5.72;;;3.50;;
29432;SDS011;16405;53.964;13.448;2023-07-29T12:35:24;6.63;;;3.92;;
29432;SDS011;16405;53.964;13.448;2023-07-29T12:37:58;5.65;;;3.60;;
29432;SDS011;16405;53.964;13.448;2023-07-29T12:40:25;5.72;;;3.40;;
29432;SDS011;16405;53.964;13.448;2023-07-29T12:42:56;2.70;;;2.20;;
29432;SDS011;16405;53.964;13.448;2023-07-29T12:45:35;2.65;;;1.90;;
29432;SDS011;16405;53.964;13.448;2023-07-29T12:48:10;4.60;;;2.00;;
29432;SDS011;16405;53.964;13.448;2023-07-29T12:50:37;2.33;;;1.90;;
29432;SDS011;16405;53.964;13.448;2023-07-29T12:53:12;3.95;;;1.90;;
29432;SDS011;16405;53.964;13.448;2023-07-29T12:55:40;2.35;;;1.80;;
29432;SDS011;16405;53.964;13.448;2023-07-29T12:58:18;2.40;;;1.98;;
29432;SDS011;16405;53.964;13.448;2023-07-29T13:00:44;3.33;;;1.60;;
29432;SDS011;16405;53.964;13.448;2023-07-29T13:03:18;2.17;;;1.70;;
29432;SDS011;16405;53.964;13.448;2023-07-29T13:05:44;6.22;;;1.80;;
29432;SDS011;16405;53.964;13.448;2023-07-29T13:08:10;4.63;;;1.83;;
29432;SDS011;16405;53.964;13.448;2023-07-29T13:10:36;5.20;;;2.22;;
29432;SDS011;16405;53.964;13.448;2023-07-29T13:13:09;2.63;;;1.80;;
29432;SDS011;16405;53.964;13.448;2023-07-29T13:15:38;2.35;;;1.60;;
29432;SDS011;16405;53.964;13.448;2023-07-29T13:18:04;3.33;;;1.73;;
29432;SDS011;16405;53.964;13.448;2023-07-29T13:20:30;4.25;;;2.00;;
29432;SDS011;16405;53.964;13.448;2023-07-29T13:22:57;3.53;;;1.80;;
29432;SDS011;16405;53.964;13.448;2023-07-29T13:25:25;2.22;;;1.63;;
29432;SDS011;16405;53.964;13.448;2023-07-29T13:27:51;3.85;;;1.60;;
29432;SDS011;16405;53.964;13.448;2023-07-29T13:30:17;2.30;;;2.00;;
29432;SDS011;16405;53.964;13.448;2023-07-29T13:32:43;2.22;;;2.03;;
29432;SDS011;16405;53.964;13.448;2023-07-29T13:35:11;5.45;;;2.15;;
29432;SDS011;16405;53.964;13.448;2023-07-29T13:37:46;4.00;;;1.80;;
29432;SDS011;16405;53.964;13.448;2023-07-29T13:40:12;1.88;;;1.60;;
29432;SDS011;16405;53.964;13.448;2023-07-29T13:45:14;4.90;;;2.50;;
29432;SDS011;16405;53.964;13.448;2023-07-29T13:47:39;5.93;;;2.15;;
29432;SDS011;16405;53.964;13.448;2023-07-29T13:50:05;3.63;;;2.35;;
29432;SDS011;16405;53.964;13.448;2023-07-29T13:52:37;4.30;;;2.10;;
29432;SDS011;16405;53.964;13.448;2023-07-29T13:55:04;3.78;;;2.15;;
29432;SDS011;16405;53.964;13.448;2023-07-29T13:57:33;2.35;;;1.80;;
29432;SDS011;16405;53.964;13.448;2023-07-29T13:59:59;2.35;;;1.70;;
29432;SDS011;16405;53.964;13.448;2023-07-29T14:02:33;2.30;;;1.52;;
29432;SDS011;16405;53.964;13.448;2023-07-29T14:04:59;5.15;;;1.90;;
29432;SDS011;16405;53.964;13.448;2023-07-29T14:07:24;2.08;;;1.70;;
29432;SDS011;16405;53.964;13.448;2023-07-29T14:09:57;4.78;;;1.88;;
29432;SDS011;16405;53.964;13.448;2023-07-29T14:12:23;3.72;;;2.00;;
29432;SDS011;16405;53.964;13.448;2023-07-29T14:15:09;2.93;;;1.60;;
29432;SDS011;16405;53.964;13.448;2023-07-29T14:17:35;4.85;;;1.50;;
29432;SDS011;16405;53.964;13.448;2023-07-29T14:20:08;3.28;;;1.40;;
29432;SDS011;16405;53.964;13.448;2023-07-29T14:22:35;5.10;;;1.60;;
29432;SDS011;16405;53.964;13.448;2023-07-29T14:25:01;2.60;;;1.60;;
29432;SDS011;16405;53.964;13.448;2023-07-29T14:27:27;2.17;;;1.08;;
29432;SDS011;16405;53.964;13.448;2023-07-29T14:29:58;7.50;;;1.50;;
29432;SDS011;16405;53.964;13.448;2023-07-29T14:32:26;8.73;;;1.50;;
29432;SDS011;16405;53.964;13.448;2023-07-29T14:34:52;2.75;;;1.38;;
29432;SDS011;16405;53.964;13.448;2023-07-29T14:37:18;2.38;;;1.45;;
29432;SDS011;16405;53.964;13.448;2023-07-29T14:39:51;3.03;;;1.20;;
29432;SDS011;16405;53.964;13.448;2023-07-29T14:42:20;2.20;;;1.48;;
29432;SDS011;16405;53.964;13.448;2023-07-29T14:44:57;1.92;;;1.33;;
29432;SDS011;16405;53.964;13.448;2023-07-29T14:47:22;2.22;;;1.27;;
29432;SDS011;16405;53.964;13.448;2023-07-29T14:49:48;8.25;;;1.38;;
29432;SDS011;16405;53.964;13.448;2023-07-29T14:52:14;6.50;;;1.58;;
29432;SDS011;16405;53.964;13.448;2023-07-29T14:54:40;4.60;;;1.15;;
29432;SDS011;16405;53.964;13.448;2023-07-29T14:57:11;7.03;;;1.20;;
29432;SDS011;16405;53.964;13.448;2023-07-29T14:59:37;3.97;;;1.45;;
29432;SDS011;16405;53.964;13.448;2023-07-29T15:02:04;4.20;;;1.38;;
29432;SDS011;16405;53.964;13.448;2023-07-29T15:04:30;2.00;;;1.35;;
29432;SDS011;16405;53.964;13.448;2023-07-29T15:06:58;6.30;;;1.80;;
29432;SDS011;16405;53.964;13.448;2023-07-29T15:09:26;2.97;;;1.42;;
29432;SDS011;16405;53.964;13.448;2023-07-29T15:11:52;2.35;;;1.20;;
29432;SDS011;16405;53.964;13.448;2023-07-29T15:14:18;5.50;;;1.30;;
29432;SDS011;16405;53.964;13.448;2023-07-29T15:16:44;5.22;;;1.33;;
29432;SDS011;16405;53.964;13.448;2023-07-29T15:19:09;4.30;;;1.42;;
29432;SDS011;16405;53.964;13.448;2023-07-29T15:21:38;4.50;;;1.80;;
29432;SDS011;16405;53.964;13.448;2023-07-29T15:24:14;3.27;;;1.60;;